createdAt,value
2018-09-11T00:00:25.404Z,1010.72
2018-09-11T00:01:05.922Z,1010.74
2018-09-11T00:01:46.443Z,1010.75
2018-09-11T00:02:27.051Z,1010.75
2018-09-11T00:03:07.558Z,1010.74
2018-09-11T00:03:48.081Z,1010.77
2018-09-11T00:04:28.592Z,1010.77
2018-09-11T00:05:09.106Z,1010.8
2018-09-11T00:05:49.884Z,1010.78
2018-09-11T00:06:30.458Z,1010.81
2018-09-11T00:07:10.979Z,1010.78
2018-09-11T00:07:51.502Z,1010.76
2018-09-11T00:08:32.048Z,1010.78
2018-09-11T00:09:12.569Z,1010.78
2018-09-11T00:09:53.106Z,1010.76
2018-09-11T00:10:33.615Z,1010.76
2018-09-11T00:11:14.130Z,1010.75
2018-09-11T00:11:54.661Z,1010.79
2018-09-11T00:12:35.174Z,1010.78
2018-09-11T00:13:15.696Z,1010.82
2018-09-11T00:13:56.183Z,1010.82
2018-09-11T00:14:36.753Z,1010.81
2018-09-11T00:15:17.266Z,1010.85
2018-09-11T00:15:57.795Z,1010.81
2018-09-11T00:16:38.367Z,1010.82
2018-09-11T00:17:18.890Z,1010.82
2018-09-11T00:17:59.413Z,1010.79
2018-09-11T00:18:39.927Z,1010.8
2018-09-11T00:19:20.453Z,1010.8
2018-09-11T00:20:00.972Z,1010.8
2018-09-11T00:20:41.483Z,1010.74
2018-09-11T00:21:22.011Z,1010.77
2018-09-11T00:22:02.523Z,1010.74
2018-09-11T00:22:43.037Z,1010.71
2018-09-11T00:23:23.568Z,1010.74
2018-09-11T00:24:04.129Z,1010.75
2018-09-11T00:24:44.662Z,1010.71
2018-09-11T00:25:25.179Z,1010.69
2018-09-11T00:26:05.696Z,1010.69
2018-09-11T00:26:46.219Z,1010.71
2018-09-11T00:27:26.725Z,1010.73
2018-09-11T00:28:07.259Z,1010.7
2018-09-11T00:28:47.763Z,1010.72
2018-09-11T00:29:28.284Z,1010.72
2018-09-11T00:30:08.801Z,1010.7
2018-09-11T00:30:49.321Z,1010.69
2018-09-11T00:31:29.854Z,1010.75
2018-09-11T00:32:10.362Z,1010.68
2018-09-11T00:32:50.898Z,1010.73
2018-09-11T00:33:31.412Z,1010.71
2018-09-11T00:34:11.949Z,1010.67
2018-09-11T00:34:52.473Z,1010.67
2018-09-11T00:35:33.014Z,1010.68
2018-09-11T00:36:13.567Z,1010.71
2018-09-11T00:36:54.088Z,1010.69
2018-09-11T00:37:34.607Z,1010.67
2018-09-11T00:38:15.182Z,1010.65
2018-09-11T00:38:55.699Z,1010.67
2018-09-11T00:39:36.206Z,1010.66
2018-09-11T00:40:16.712Z,1010.66
2018-09-11T00:40:57.225Z,1010.69
2018-09-11T00:41:37.741Z,1010.72
2018-09-11T00:42:18.274Z,1010.72
2018-09-11T00:42:58.801Z,1010.71
2018-09-11T00:43:39.306Z,1010.72
2018-09-11T00:44:20.195Z,1010.71
2018-09-11T00:45:00.683Z,1010.75
2018-09-11T00:45:41.226Z,1010.72
2018-09-11T00:46:21.737Z,1010.72
2018-09-11T00:47:02.242Z,1010.71
2018-09-11T00:47:42.722Z,1010.73
2018-09-11T00:48:23.205Z,1010.69
2018-09-11T00:49:03.672Z,1010.75
2018-09-11T00:49:44.186Z,1010.74
2018-09-11T00:50:24.951Z,1010.77
2018-09-11T00:51:05.203Z,1010.77
2018-09-11T00:51:45.764Z,1010.79
2018-09-11T00:52:26.212Z,1010.76
2018-09-11T00:53:06.672Z,1010.82
2018-09-11T00:53:47.182Z,1010.77
2018-09-11T00:54:27.655Z,1010.79
2018-09-11T00:55:08.165Z,1010.77
2018-09-11T00:55:48.643Z,1010.84
2018-09-11T00:56:29.145Z,1010.79
2018-09-11T00:57:09.638Z,1010.83
2018-09-11T00:57:50.142Z,1010.84
2018-09-11T00:58:30.637Z,1010.8
2018-09-11T00:59:11.111Z,1010.82
2018-09-11T00:59:51.621Z,1010.82
2018-09-11T01:00:32.195Z,1010.84
2018-09-11T01:01:12.646Z,1010.83
2018-09-11T01:01:53.094Z,1010.87
2018-09-11T01:02:33.599Z,1010.87
2018-09-11T01:03:14.103Z,1010.85
2018-09-11T01:03:54.624Z,1010.87
2018-09-11T01:04:35.142Z,1010.86
2018-09-11T01:05:15.658Z,1010.89
2018-09-11T01:05:56.188Z,1010.87
2018-09-11T01:06:36.696Z,1010.95
2018-09-11T01:07:17.227Z,1010.93
2018-09-11T01:07:57.730Z,1010.9
2018-09-11T01:08:38.193Z,1010.91
2018-09-11T01:09:18.709Z,1010.94
2018-09-11T01:09:59.282Z,1010.94
2018-09-11T01:10:39.751Z,1010.91
2018-09-11T01:11:20.258Z,1010.99
2018-09-11T01:12:00.785Z,1010.93
2018-09-11T01:12:41.313Z,1010.97
2018-09-11T01:13:21.804Z,1010.98
2018-09-11T01:14:02.271Z,1010.99
2018-09-11T01:14:42.780Z,1010.95
2018-09-11T01:15:23.241Z,1010.94
2018-09-11T01:16:03.755Z,1010.94
2018-09-11T01:16:44.273Z,1010.96
2018-09-11T01:17:24.772Z,1010.97
2018-09-11T01:18:05.375Z,1011
2018-09-11T01:18:45.801Z,1010.98
2018-09-11T01:19:26.313Z,1010.98
2018-09-11T01:20:06.830Z,1010.96
2018-09-11T01:20:47.337Z,1010.94
2018-09-11T01:21:27.854Z,1011.01
2018-09-11T01:22:08.368Z,1011.01
2018-09-11T01:22:48.929Z,1010.99
2018-09-11T01:23:29.436Z,1011.01
2018-09-11T01:24:09.955Z,1011.03
2018-09-11T01:24:50.479Z,1011.03
2018-09-11T01:25:30.982Z,1011.05
2018-09-11T01:26:11.495Z,1011.04
2018-09-11T01:26:51.999Z,1011.07
2018-09-11T01:27:32.503Z,1011.09
2018-09-11T01:28:13.024Z,1011.08
2018-09-11T01:28:53.550Z,1011.02
2018-09-11T01:29:34.117Z,1011.07
2018-09-11T01:30:14.580Z,1011.09
2018-09-11T01:30:55.127Z,1011.03
2018-09-11T01:31:35.756Z,1011.09
2018-09-11T01:32:16.269Z,1011.09
2018-09-11T01:32:56.788Z,1011.09
2018-09-11T01:33:37.307Z,1011.07
2018-09-11T01:34:17.826Z,1011.1
2018-09-11T01:34:58.342Z,1011.1
2018-09-11T01:35:38.837Z,1011.07
2018-09-11T01:36:19.380Z,1011.14
2018-09-11T01:36:59.924Z,1011.07
2018-09-11T01:37:40.422Z,1011.13
2018-09-11T01:38:20.971Z,1011.17
2018-09-11T01:39:01.471Z,1011.12
2018-09-11T01:39:41.997Z,1011.17
2018-09-11T01:40:22.523Z,1011.17
2018-09-11T01:41:03.031Z,1011.15
2018-09-11T01:41:43.545Z,1011.18
2018-09-11T01:42:24.090Z,1011.16
2018-09-11T01:43:04.603Z,1011.15
2018-09-11T01:43:45.125Z,1011.17
2018-09-11T01:44:25.696Z,1011.2
2018-09-11T01:45:06.172Z,1011.2
2018-09-11T01:45:46.699Z,1011.2
2018-09-11T01:46:27.218Z,1011.22
2018-09-11T01:47:07.745Z,1011.22
2018-09-11T01:47:48.271Z,1011.23
2018-09-11T01:48:28.797Z,1011.21
2018-09-11T01:49:09.302Z,1011.23
2018-09-11T01:49:49.814Z,1011.21
2018-09-11T01:50:30.336Z,1011.21
2018-09-11T01:51:10.829Z,1011.26
2018-09-11T01:51:51.337Z,1011.23
2018-09-11T01:52:31.869Z,1011.2
2018-09-11T01:53:12.384Z,1011.19
2018-09-11T01:53:52.925Z,1011.24
2018-09-11T01:54:33.429Z,1011.29
2018-09-11T01:55:13.959Z,1011.25
2018-09-11T01:55:54.487Z,1011.26
2018-09-11T01:56:35.002Z,1011.26
2018-09-11T01:57:15.521Z,1011.29
2018-09-11T01:57:56.053Z,1011.25
2018-09-11T01:58:36.582Z,1011.22
2018-09-11T01:59:17.090Z,1011.28
2018-09-11T01:59:57.595Z,1011.25
2018-09-11T02:00:38.113Z,1011.25
2018-09-11T02:01:18.635Z,1011.27
2018-09-11T02:01:59.154Z,1011.3
2018-09-11T02:02:39.674Z,1011.26
2018-09-11T02:03:20.196Z,1011.27
2018-09-11T02:04:00.713Z,1011.29
2018-09-11T02:04:41.253Z,1011.29
2018-09-11T02:05:21.789Z,1011.31
2018-09-11T02:06:02.318Z,1011.3
2018-09-11T02:06:42.830Z,1011.27
2018-09-11T02:07:23.352Z,1011.29
2018-09-11T02:08:03.884Z,1011.31
2018-09-11T02:08:44.381Z,1011.32
2018-09-11T02:09:24.901Z,1011.31
2018-09-11T02:10:05.432Z,1011.31
2018-09-11T02:10:45.993Z,1011.3
2018-09-11T02:11:26.544Z,1011.33
2018-09-11T02:12:07.067Z,1011.29
2018-09-11T02:12:47.586Z,1011.35
2018-09-11T02:13:28.109Z,1011.32
2018-09-11T02:14:08.642Z,1011.33
2018-09-11T02:14:49.158Z,1011.32
2018-09-11T02:15:29.675Z,1011.31
2018-09-11T02:16:10.198Z,1011.33
2018-09-11T02:16:50.724Z,1011.29
2018-09-11T02:17:31.239Z,1011.3
2018-09-11T02:18:11.754Z,1011.3
2018-09-11T02:18:52.270Z,1011.31
2018-09-11T02:19:32.785Z,1011.29
2018-09-11T02:20:13.296Z,1011.27
2018-09-11T02:20:53.846Z,1011.28
2018-09-11T02:21:34.327Z,1011.27
2018-09-11T02:22:14.862Z,1011.23
2018-09-11T02:22:55.389Z,1011.25
2018-09-11T02:23:35.904Z,1011.28
2018-09-11T02:24:16.475Z,1011.24
2018-09-11T02:24:56.978Z,1011.25
2018-09-11T02:25:37.490Z,1011.25
2018-09-11T02:26:18.018Z,1011.26
2018-09-11T02:26:58.558Z,1011.31
2018-09-11T02:27:39.086Z,1011.37
2018-09-11T02:28:19.585Z,1011.28
2018-09-11T02:29:00.104Z,1011.32
2018-09-11T02:29:40.627Z,1011.35
2018-09-11T02:30:21.135Z,1011.35
2018-09-11T02:31:01.664Z,1011.31
2018-09-11T02:31:42.199Z,1011.32
2018-09-11T02:32:22.715Z,1011.35
2018-09-11T02:33:03.565Z,1011.32
2018-09-11T02:33:43.856Z,1011.39
2018-09-11T02:34:24.372Z,1011.41
2018-09-11T02:35:04.901Z,1011.32
2018-09-11T02:35:45.418Z,1011.37
2018-09-11T02:36:25.918Z,1011.34
2018-09-11T02:37:06.461Z,1011.37
2018-09-11T02:37:46.973Z,1011.33
2018-09-11T02:38:27.499Z,1011.4
2018-09-11T02:39:08.014Z,1011.4
2018-09-11T02:39:48.541Z,1011.37
2018-09-11T02:40:29.055Z,1011.38
2018-09-11T02:41:09.612Z,1011.39
2018-09-11T02:41:50.116Z,1011.42
2018-09-11T02:42:30.630Z,1011.42
2018-09-11T02:43:11.143Z,1011.39
2018-09-11T02:43:51.659Z,1011.47
2018-09-11T02:44:32.172Z,1011.47
2018-09-11T02:45:12.704Z,1011.48
2018-09-11T02:45:53.225Z,1011.48
2018-09-11T02:46:33.839Z,1011.48
2018-09-11T02:47:14.351Z,1011.49
2018-09-11T02:47:54.866Z,1011.53
2018-09-11T02:48:35.382Z,1011.5
2018-09-11T02:49:15.904Z,1011.51
2018-09-11T02:49:56.507Z,1011.49
2018-09-11T02:50:37.056Z,1011.51
2018-09-11T02:51:17.579Z,1011.49
2018-09-11T02:51:58.102Z,1011.5
2018-09-11T02:52:38.616Z,1011.48
2018-09-11T02:53:19.134Z,1011.54
2018-09-11T02:53:59.645Z,1011.49
2018-09-11T02:54:40.155Z,1011.46
2018-09-11T02:55:20.667Z,1011.49
2018-09-11T02:56:01.192Z,1011.52
2018-09-11T02:56:41.750Z,1011.5
2018-09-11T02:57:22.255Z,1011.54
2018-09-11T02:58:02.766Z,1011.54
2018-09-11T02:58:43.293Z,1011.58
2018-09-11T02:59:23.843Z,1011.54
2018-09-11T03:00:04.344Z,1011.51
2018-09-11T03:00:44.851Z,1011.55
2018-09-11T03:01:25.365Z,1011.56
2018-09-11T03:02:05.879Z,1011.57
2018-09-11T03:02:46.392Z,1011.58
2018-09-11T03:03:26.904Z,1011.59
2018-09-11T03:04:07.429Z,1011.58
2018-09-11T03:04:47.941Z,1011.6
2018-09-11T03:05:28.451Z,1011.58
2018-09-11T03:06:08.971Z,1011.58
2018-09-11T03:06:49.486Z,1011.6
2018-09-11T03:07:30.015Z,1011.58
2018-09-11T03:08:10.524Z,1011.57
2018-09-11T03:08:51.038Z,1011.6
2018-09-11T03:09:31.551Z,1011.61
2018-09-11T03:10:12.069Z,1011.62
2018-09-11T03:10:52.612Z,1011.62
2018-09-11T03:11:33.133Z,1011.62
2018-09-11T03:12:13.644Z,1011.58
2018-09-11T03:12:54.158Z,1011.63
2018-09-11T03:13:34.684Z,1011.63
2018-09-11T03:14:15.189Z,1011.61
2018-09-11T03:14:55.707Z,1011.65
2018-09-11T03:15:36.221Z,1011.68
2018-09-11T03:16:16.734Z,1011.66
2018-09-11T03:16:57.275Z,1011.65
2018-09-11T03:17:37.804Z,1011.7
2018-09-11T03:18:18.333Z,1011.64
2018-09-11T03:18:59.065Z,1011.68
2018-09-11T03:19:39.468Z,1011.71
2018-09-11T03:20:19.989Z,1011.67
2018-09-11T03:21:00.501Z,1011.68
2018-09-11T03:21:41.025Z,1011.65
2018-09-11T03:22:21.566Z,1011.71
2018-09-11T03:23:02.084Z,1011.71
2018-09-11T03:23:42.603Z,1011.73
2018-09-11T03:24:23.102Z,1011.68
2018-09-11T03:25:03.614Z,1011.72
2018-09-11T03:25:44.351Z,1011.75
2018-09-11T03:26:24.817Z,1011.74
2018-09-11T03:27:05.276Z,1011.77
2018-09-11T03:27:45.718Z,1011.8
2018-09-11T03:28:26.260Z,1011.79
2018-09-11T03:29:06.714Z,1011.75
2018-09-11T03:29:47.254Z,1011.82
2018-09-11T03:30:27.776Z,1011.78
2018-09-11T03:31:08.297Z,1011.76
2018-09-11T03:31:48.820Z,1011.78
2018-09-11T03:32:29.362Z,1011.76
2018-09-11T03:33:09.861Z,1011.78
2018-09-11T03:33:50.406Z,1011.79
2018-09-11T03:34:30.905Z,1011.78
2018-09-11T03:35:11.412Z,1011.75
2018-09-11T03:35:51.923Z,1011.76
2018-09-11T03:36:32.448Z,1011.79
2018-09-11T03:37:12.954Z,1011.77
2018-09-11T03:37:53.481Z,1011.78
2018-09-11T03:38:33.992Z,1011.77
2018-09-11T03:39:14.617Z,1011.75
2018-09-11T03:39:55.208Z,1011.77
2018-09-11T03:40:35.714Z,1011.76
2018-09-11T03:41:16.250Z,1011.76
2018-09-11T03:41:56.742Z,1011.74
2018-09-11T03:42:37.235Z,1011.77
2018-09-11T03:43:17.812Z,1011.75
2018-09-11T03:43:58.275Z,1011.79
2018-09-11T03:44:38.807Z,1011.76
2018-09-11T03:45:19.252Z,1011.76
2018-09-11T03:45:59.804Z,1011.81
2018-09-11T03:46:40.289Z,1011.78
2018-09-11T03:47:20.729Z,1011.8
2018-09-11T03:48:01.243Z,1011.81
2018-09-11T03:48:41.706Z,1011.83
2018-09-11T03:49:22.896Z,1011.8
2018-09-11T03:50:03.334Z,1011.84
2018-09-11T03:50:43.870Z,1011.82
2018-09-11T03:51:24.349Z,1011.84
2018-09-11T03:52:04.831Z,1011.81
2018-09-11T03:52:45.344Z,1011.83
2018-09-11T03:53:25.816Z,1011.85
2018-09-11T03:54:06.273Z,1011.81
2018-09-11T03:54:46.806Z,1011.75
2018-09-11T03:55:27.329Z,1011.83
2018-09-11T03:56:07.810Z,1011.8
2018-09-11T03:56:48.314Z,1011.82
2018-09-11T03:57:28.824Z,1011.87
2018-09-11T03:58:09.404Z,1011.85
2018-09-11T03:58:49.915Z,1011.88
2018-09-11T03:59:30.410Z,1011.81
2018-09-11T04:00:10.912Z,1011.85
2018-09-11T04:00:51.415Z,1011.85
2018-09-11T04:01:31.909Z,1011.87
2018-09-11T04:02:12.600Z,1011.84
2018-09-11T04:02:53.129Z,1011.9
2018-09-11T04:03:33.817Z,1011.87
2018-09-11T04:04:14.321Z,1011.83
2018-09-11T04:04:54.795Z,1011.88
2018-09-11T04:05:35.396Z,1011.86
2018-09-11T04:06:15.730Z,1011.87
2018-09-11T04:06:56.235Z,1011.9
2018-09-11T04:07:36.775Z,1011.91
2018-09-11T04:08:17.230Z,1011.94
2018-09-11T04:08:57.882Z,1011.93
2018-09-11T04:09:38.390Z,1011.93
2018-09-11T04:10:18.911Z,1011.93
2018-09-11T04:10:59.389Z,1011.94
2018-09-11T04:11:39.889Z,1011.9
2018-09-11T04:12:20.356Z,1011.9
2018-09-11T04:13:00.858Z,1011.91
2018-09-11T04:13:41.326Z,1011.9
2018-09-11T04:14:21.856Z,1011.86
2018-09-11T04:15:02.318Z,1011.91
2018-09-11T04:15:42.786Z,1011.87
2018-09-11T04:16:23.320Z,1011.84
2018-09-11T04:17:03.821Z,1011.83
2018-09-11T04:17:44.332Z,1011.88
2018-09-11T04:18:24.811Z,1011.89
2018-09-11T04:19:05.304Z,1011.86
2018-09-11T04:19:45.805Z,1011.84
2018-09-11T04:20:26.310Z,1011.86
2018-09-11T04:21:06.807Z,1011.88
2018-09-11T04:21:47.315Z,1011.87
2018-09-11T04:22:27.934Z,1011.91
2018-09-11T04:23:08.334Z,1011.92
2018-09-11T04:23:48.920Z,1011.94
2018-09-11T04:24:29.335Z,1011.87
2018-09-11T04:25:09.797Z,1011.85
2018-09-11T04:25:50.364Z,1011.87
2018-09-11T04:26:30.842Z,1011.85
2018-09-11T04:27:11.277Z,1011.83
2018-09-11T04:27:51.789Z,1011.82
2018-09-11T04:28:32.278Z,1011.85
2018-09-11T04:29:12.775Z,1011.82
2018-09-11T04:29:53.324Z,1011.83
2018-09-11T04:30:33.814Z,1011.77
2018-09-11T04:31:14.263Z,1011.78
2018-09-11T04:31:54.791Z,1011.79
2018-09-11T04:32:35.300Z,1011.78
2018-09-11T04:33:15.761Z,1011.77
2018-09-11T04:33:56.263Z,1011.81
2018-09-11T04:34:36.766Z,1011.81
2018-09-11T04:35:17.262Z,1011.78
2018-09-11T04:35:57.768Z,1011.81
2018-09-11T04:36:38.267Z,1011.78
2018-09-11T04:37:18.770Z,1011.83
2018-09-11T04:37:59.279Z,1011.83
2018-09-11T04:38:39.736Z,1011.85
2018-09-11T04:39:20.250Z,1011.82
2018-09-11T04:40:00.756Z,1011.82
2018-09-11T04:40:41.218Z,1011.83
2018-09-11T04:41:21.700Z,1011.81
2018-09-11T04:42:02.217Z,1011.84
2018-09-11T04:42:42.692Z,1011.83
2018-09-11T04:43:23.147Z,1011.82
2018-09-11T04:44:03.683Z,1011.82
2018-09-11T04:44:44.162Z,1011.81
2018-09-11T04:45:24.663Z,1011.81
2018-09-11T04:46:05.225Z,1011.8
2018-09-11T04:46:45.672Z,1011.82
2018-09-11T04:47:26.473Z,1011.79
2018-09-11T04:48:06.977Z,1011.81
2018-09-11T04:48:47.450Z,1011.78
2018-09-11T04:49:28.554Z,1011.8
2018-09-11T04:50:09.216Z,1011.87
2018-09-11T04:50:49.716Z,1011.84
2018-09-11T04:51:30.192Z,1011.82
2018-09-11T04:52:10.727Z,1011.81
2018-09-11T04:52:51.324Z,1011.8
2018-09-11T04:53:31.703Z,1011.81
2018-09-11T04:54:12.251Z,1011.85
2018-09-11T04:54:52.685Z,1011.85
2018-09-11T04:55:33.185Z,1011.92
2018-09-11T04:56:13.836Z,1011.87
2018-09-11T04:56:54.207Z,1011.85
2018-09-11T04:57:34.613Z,1011.91
2018-09-11T04:58:15.118Z,1011.88
2018-09-11T04:58:55.576Z,1011.92
2018-09-11T04:59:36.100Z,1011.91
2018-09-11T05:00:16.572Z,1011.92
2018-09-11T05:00:57.057Z,1011.94
2018-09-11T05:01:37.595Z,1011.96
2018-09-11T05:02:18.106Z,1012.01
2018-09-11T05:02:58.577Z,1011.98
2018-09-11T05:03:39.062Z,1011.95
2018-09-11T05:04:19.570Z,1011.97
2018-09-11T05:05:00.053Z,1011.95
2018-09-11T05:05:40.545Z,1011.94
2018-09-11T05:06:21.063Z,1011.95
2018-09-11T05:07:01.601Z,1011.93
2018-09-11T05:07:42.135Z,1011.96
2018-09-11T05:08:23.208Z,1011.93
2018-09-11T05:09:03.814Z,1011.95
2018-09-11T05:09:44.216Z,1012.01
2018-09-11T05:10:24.693Z,1011.95
2018-09-11T05:11:05.225Z,1011.98
2018-09-11T05:11:45.716Z,1011.99
2018-09-11T05:12:26.216Z,1011.98
2018-09-11T05:13:06.732Z,1011.99
2018-09-11T05:13:47.235Z,1011.98
2018-09-11T05:14:27.706Z,1012.03
2018-09-11T05:15:08.178Z,1011.99
2018-09-11T05:15:48.665Z,1012
2018-09-11T05:16:29.135Z,1012.05
2018-09-11T05:17:09.638Z,1011.99
2018-09-11T05:17:50.138Z,1012.04
2018-09-11T05:18:30.753Z,1012.05
2018-09-11T05:19:11.299Z,1012.03
2018-09-11T05:19:51.784Z,1012.03
2018-09-11T05:20:32.302Z,1012.06
2018-09-11T05:21:12.748Z,1012.01
2018-09-11T05:21:53.292Z,1012.02
2018-09-11T05:22:33.755Z,1012.04
2018-09-11T05:23:14.272Z,1012.07
2018-09-11T05:23:54.738Z,1012.05
2018-09-11T05:24:35.268Z,1012.08
2018-09-11T05:25:15.734Z,1012.09
2018-09-11T05:25:56.204Z,1012.06
2018-09-11T05:26:36.697Z,1012.1
2018-09-11T05:27:17.257Z,1012.07
2018-09-11T05:27:57.645Z,1012.06
2018-09-11T05:28:38.152Z,1012.09
2018-09-11T05:29:18.557Z,1012.08
2018-09-11T05:29:59.103Z,1012.11
2018-09-11T05:30:39.595Z,1012.11
2018-09-11T05:31:20.103Z,1012.11
2018-09-11T05:32:00.577Z,1012.09
2018-09-11T05:32:41.132Z,1012.12
2018-09-11T05:33:21.597Z,1012.14
2018-09-11T05:34:02.082Z,1012.13
2018-09-11T05:34:42.584Z,1012.11
2018-09-11T05:35:23.170Z,1012.1
2018-09-11T05:36:03.601Z,1012.09
2018-09-11T05:36:44.080Z,1012.15
2018-09-11T05:37:24.831Z,1012.13
2018-09-11T05:38:05.063Z,1012.09
2018-09-11T05:38:45.541Z,1012.14
2018-09-11T05:39:26.180Z,1012.14
2018-09-11T05:40:06.634Z,1012.14
2018-09-11T05:40:47.120Z,1012.12
2018-09-11T05:41:27.662Z,1012.16
2018-09-11T05:42:08.122Z,1012.19
2018-09-11T05:42:48.678Z,1012.17
2018-09-11T05:43:29.172Z,1012.16
2018-09-11T05:44:09.612Z,1012.18
2018-09-11T05:44:50.149Z,1012.21
2018-09-11T05:45:30.653Z,1012.18
2018-09-11T05:46:11.193Z,1012.21
2018-09-11T05:46:51.642Z,1012.23
2018-09-11T05:47:32.187Z,1012.21
2018-09-11T05:48:12.676Z,1012.2
2018-09-11T05:48:53.134Z,1012.2
2018-09-11T05:49:33.652Z,1012.21
2018-09-11T05:50:14.146Z,1012.22
2018-09-11T05:50:54.632Z,1012.23
2018-09-11T05:51:35.929Z,1012.22
2018-09-11T05:52:16.381Z,1012.23
2018-09-11T05:52:56.911Z,1012.26
2018-09-11T05:53:37.448Z,1012.23
2018-09-11T05:54:17.937Z,1012.26
2018-09-11T05:54:58.459Z,1012.24
2018-09-11T05:55:38.977Z,1012.19
2018-09-11T05:56:19.409Z,1012.19
2018-09-11T05:56:59.911Z,1012.2
2018-09-11T05:57:40.457Z,1012.16
2018-09-11T05:58:20.946Z,1012.13
2018-09-11T05:59:01.373Z,1012.19
2018-09-11T05:59:42.001Z,1012.18
2018-09-11T06:00:22.589Z,1012.14
2018-09-11T06:01:03.109Z,1012.14
2018-09-11T06:01:43.664Z,1012.14
2018-09-11T06:02:24.134Z,1012.12
2018-09-11T06:03:04.892Z,1012.17
2018-09-11T06:03:45.391Z,1012.18
2018-09-11T06:04:26.709Z,1012.17
2018-09-11T06:05:07.192Z,1012.23
2018-09-11T06:05:47.878Z,1012.21
2018-09-11T06:06:28.234Z,1012.23
2018-09-11T06:07:08.747Z,1012.22
2018-09-11T06:07:49.252Z,1012.2
2018-09-11T06:08:29.789Z,1012.22
2018-09-11T06:09:10.301Z,1012.23
2018-09-11T06:09:50.853Z,1012.27
2018-09-11T06:10:31.387Z,1012.26
2018-09-11T06:11:11.888Z,1012.26
2018-09-11T06:11:52.390Z,1012.28
2018-09-11T06:12:32.892Z,1012.28
2018-09-11T06:13:13.359Z,1012.28
2018-09-11T06:13:53.950Z,1012.26
2018-09-11T06:14:34.455Z,1012.27
2018-09-11T06:15:14.955Z,1012.29
2018-09-11T06:15:55.450Z,1012.32
2018-09-11T06:16:35.959Z,1012.32
2018-09-11T06:17:16.869Z,1012.3
2018-09-11T06:17:57.356Z,1012.3
2018-09-11T06:18:37.916Z,1012.29
2018-09-11T06:19:18.486Z,1012.28
2018-09-11T06:19:58.966Z,1012.29
2018-09-11T06:20:39.468Z,1012.28
2018-09-11T06:21:19.937Z,1012.29
2018-09-11T06:22:00.482Z,1012.29
2018-09-11T06:22:40.941Z,1012.27
2018-09-11T06:23:21.443Z,1012.25
2018-09-11T06:24:01.915Z,1012.28
2018-09-11T06:24:42.431Z,1012.27
2018-09-11T06:25:22.991Z,1012.28
2018-09-11T06:26:03.407Z,1012.26
2018-09-11T06:26:43.904Z,1012.25
2018-09-11T06:27:24.435Z,1012.25
2018-09-11T06:28:04.921Z,1012.26
2018-09-11T06:28:45.432Z,1012.22
2018-09-11T06:29:26.107Z,1012.27
2018-09-11T06:30:06.597Z,1012.21
2018-09-11T06:30:47.191Z,1012.25
2018-09-11T06:31:27.677Z,1012.3
2018-09-11T06:32:08.185Z,1012.29
2018-09-11T06:32:48.634Z,1012.32
2018-09-11T06:33:29.127Z,1012.33
2018-09-11T06:34:09.660Z,1012.32
2018-09-11T06:34:50.186Z,1012.32
2018-09-11T06:35:30.656Z,1012.31
2018-09-11T06:36:11.242Z,1012.33
2018-09-11T06:36:51.811Z,1012.31
2018-09-11T06:37:32.423Z,1012.27
2018-09-11T06:38:13.263Z,1012.26
2018-09-11T06:38:53.586Z,1012.26
2018-09-11T06:39:33.950Z,1012.26
2018-09-11T06:40:14.473Z,1012.29
2018-09-11T06:40:54.947Z,1012.24
2018-09-11T06:41:35.464Z,1012.26
2018-09-11T06:42:16.009Z,1012.24
2018-09-11T06:42:56.445Z,1012.24
2018-09-11T06:43:36.880Z,1012.26
2018-09-11T06:44:17.420Z,1012.27
2018-09-11T06:44:58.184Z,1012.3
2018-09-11T06:45:38.407Z,1012.3
2018-09-11T06:46:18.910Z,1012.3
2018-09-11T06:46:59.452Z,1012.34
2018-09-11T06:47:39.874Z,1012.3
2018-09-11T06:48:20.467Z,1012.27
2018-09-11T06:49:00.895Z,1012.28
2018-09-11T06:49:41.400Z,1012.24
2018-09-11T06:50:21.906Z,1012.25
2018-09-11T06:51:02.411Z,1012.28
2018-09-11T06:51:42.971Z,1012.29
2018-09-11T06:52:23.482Z,1012.35
2018-09-11T06:53:03.973Z,1012.33
2018-09-11T06:53:44.485Z,1012.35
2018-09-11T06:54:24.955Z,1012.35
2018-09-11T06:55:05.456Z,1012.39
2018-09-11T06:55:45.912Z,1012.36
2018-09-11T06:56:26.386Z,1012.38
2018-09-11T06:57:07.496Z,1012.4
2018-09-11T06:57:48.089Z,1012.43
2018-09-11T06:58:28.524Z,1012.42
2018-09-11T06:59:09.295Z,1012.45
2018-09-11T06:59:49.599Z,1012.47
2018-09-11T07:00:30.114Z,1012.51
2018-09-11T07:01:10.575Z,1012.46
2018-09-11T07:01:51.194Z,1012.51
2018-09-11T07:02:31.678Z,1012.42
2018-09-11T07:03:12.127Z,1012.42
2018-09-11T07:03:52.620Z,1012.39
2018-09-11T07:04:33.120Z,1012.47
2018-09-11T07:05:13.618Z,1012.45
2018-09-11T07:05:54.152Z,1012.44
2018-09-11T07:06:34.686Z,1012.43
2018-09-11T07:07:15.140Z,1012.44
2018-09-11T07:07:55.618Z,1012.42
2018-09-11T07:08:36.201Z,1012.43
2018-09-11T07:09:16.670Z,1012.44
2018-09-11T07:09:57.207Z,1012.44
2018-09-11T07:10:37.759Z,1012.45
2018-09-11T07:11:18.248Z,1012.45
2018-09-11T07:11:58.793Z,1012.44
2018-09-11T07:12:39.302Z,1012.45
2018-09-11T07:13:19.854Z,1012.43
2018-09-11T07:14:00.430Z,1012.51
2018-09-11T07:14:40.981Z,1012.48
2018-09-11T07:15:21.518Z,1012.48
2018-09-11T07:16:02.024Z,1012.48
2018-09-11T07:16:42.473Z,1012.5
2018-09-11T07:17:23.035Z,1012.48
2018-09-11T07:18:03.539Z,1012.48
2018-09-11T07:18:44.052Z,1012.49
2018-09-11T07:19:24.555Z,1012.49
2018-09-11T07:20:05.214Z,1012.47
2018-09-11T07:20:45.499Z,1012.49
2018-09-11T07:21:25.970Z,1012.52
2018-09-11T07:22:06.527Z,1012.49
2018-09-11T07:22:47.739Z,1012.45
2018-09-11T07:23:28.233Z,1012.47
2018-09-11T07:24:08.719Z,1012.45
2018-09-11T07:24:49.254Z,1012.48
2018-09-11T07:25:29.737Z,1012.45
2018-09-11T07:26:10.272Z,1012.44
2018-09-11T07:26:50.715Z,1012.46
2018-09-11T07:27:31.201Z,1012.45
2018-09-11T07:28:11.813Z,1012.48
2018-09-11T07:28:52.275Z,1012.47
2018-09-11T07:29:32.819Z,1012.45
2018-09-11T07:30:13.353Z,1012.48
2018-09-11T07:30:53.862Z,1012.46
2018-09-11T07:31:34.284Z,1012.47
2018-09-11T07:32:14.810Z,1012.44
2018-09-11T07:32:55.285Z,1012.48
2018-09-11T07:33:35.753Z,1012.53
2018-09-11T07:34:16.284Z,1012.53
2018-09-11T07:34:56.800Z,1012.5
2018-09-11T07:35:37.279Z,1012.5
2018-09-11T07:36:17.959Z,1012.51
2018-09-11T07:36:58.385Z,1012.5
2018-09-11T07:37:38.942Z,1012.52
2018-09-11T07:38:19.415Z,1012.52
2018-09-11T07:38:59.878Z,1012.53
2018-09-11T07:39:40.359Z,1012.56
2018-09-11T07:40:20.875Z,1012.52
2018-09-11T07:41:01.356Z,1012.52
2018-09-11T07:41:41.888Z,1012.54
2018-09-11T07:42:22.363Z,1012.5
2018-09-11T07:43:02.824Z,1012.48
2018-09-11T07:43:43.310Z,1012.5
2018-09-11T07:44:23.835Z,1012.49
2018-09-11T07:45:04.344Z,1012.47
2018-09-11T07:45:44.820Z,1012.47
2018-09-11T07:46:25.300Z,1012.45
2018-09-11T07:47:05.824Z,1012.45
2018-09-11T07:47:46.262Z,1012.42
2018-09-11T07:48:26.782Z,1012.44
2018-09-11T07:49:07.328Z,1012.45
2018-09-11T07:49:47.795Z,1012.44
2018-09-11T07:50:28.265Z,1012.46
2018-09-11T07:51:08.752Z,1012.43
2018-09-11T07:51:49.234Z,1012.42
2018-09-11T07:52:29.808Z,1012.38
2018-09-11T07:53:10.256Z,1012.45
2018-09-11T07:53:50.782Z,1012.47
2018-09-11T07:54:31.204Z,1012.43
2018-09-11T07:55:11.771Z,1012.4
2018-09-11T07:55:52.232Z,1012.47
2018-09-11T07:56:32.716Z,1012.47
2018-09-11T07:57:13.216Z,1012.46
2018-09-11T07:57:53.734Z,1012.46
2018-09-11T07:58:34.227Z,1012.46
2018-09-11T07:59:14.719Z,1012.47
2018-09-11T07:59:55.243Z,1012.48
2018-09-11T08:00:35.721Z,1012.46
2018-09-11T08:01:16.235Z,1012.48
2018-09-11T08:01:56.789Z,1012.48
2018-09-11T08:02:37.217Z,1012.47
2018-09-11T08:03:17.705Z,1012.49
2018-09-11T08:03:58.189Z,1012.48
2018-09-11T08:04:38.848Z,1012.53
2018-09-11T08:05:19.471Z,1012.5
2018-09-11T08:05:59.994Z,1012.52
2018-09-11T08:06:40.454Z,1012.52
2018-09-11T08:07:21.035Z,1012.54
2018-09-11T08:08:01.523Z,1012.57
2018-09-11T08:08:41.981Z,1012.54
2018-09-11T08:09:22.494Z,1012.57
2018-09-11T08:10:03.009Z,1012.54
2018-09-11T08:10:43.439Z,1012.51
2018-09-11T08:11:23.918Z,1012.51